Elkhorn, Wisconsin
Current Conditions -  °F | °C
As of 5:55 PM on Thursday 18 Dec 2014 (Local Time) from KBUU Reporting Station
Overcast Overcast  
Wind Chill: 20°   Ceiling: 900
Heat Index: 26°   Visibility: 10mi
Dew Point: 24°   Wind: 5mph
Humidity: 94%   Direction: 300°WNW
Pressure: 30.24"   Gusts: NA
Location:  42.67°N, 88.54°W
Report Text: KBUU 182355Z AUTO 30004KT 10SM OVC009 M04/M04 A3024 RMK AO2 T10361045 11027 21038
Loading
Personal Weather Stations






























Interactive Weather Map New forecast layout! Learn more

10-Day Weather Forecast

Advertisements
Track Severe Weather on mobile